Time;durP1;ratioP1;P1;durP2;ratioP2;P2;SDS_P1;SDS_P2;PMS_P1;PMS_P2;Temp;Humidity;BMP_temperature;BMP_pressure;BME280_temperature;BME280_humidity;BME280_pressure;Samples;Min_cycle;Max_cycle;Signal;HPM_P1;HPM_P2
2024/01/07 00:02:11;;;;;;;10.07;4.10;;;;;;;5.95;100.00;95517.56;5037570;28;20271;-67
2024/01/07 00:04:38;;;;;;;12.80;5.77;;;;;;;5.79;100.00;95514.16;5036723;28;20253;-67
2024/01/07 00:07:05;;;;;;;11.37;4.53;;;;;;;5.83;100.00;95516.28;5038282;28;20197;-67
2024/01/07 00:09:32;;;;;;;11.47;4.93;;;;;;;5.76;100.00;95517.09;5037304;28;20201;-67
2024/01/07 00:11:58;;;;;;;14.33;4.93;;;;;;;5.76;100.00;95512.69;5037599;28;20216;-67
2024/01/07 00:14:24;;;;;;;11.77;4.53;;;;;;;5.80;100.00;95516.59;5037391;28;20223;-67
2024/01/07 00:16:51;;;;;;;13.53;5.13;;;;;;;5.81;100.00;95520.03;5036990;28;20212;-67
2024/01/07 00:19:19;;;;;;;13.37;4.97;;;;;;;5.95;100.00;95522.78;5036796;28;20204;-67
2024/01/07 00:21:45;;;;;;;11.23;5.33;;;;;;;5.85;100.00;95518.72;5037242;28;20208;-67
2024/01/07 00:24:12;;;;;;;10.97;5.20;;;;;;;5.90;100.00;95517.25;5037284;28;20694;-67
2024/01/07 00:26:39;;;;;;;12.47;5.30;;;;;;;5.92;100.00;95517.06;5036656;28;20236;-67
2024/01/07 00:29:05;;;;;;;11.63;5.10;;;;;;;5.80;100.00;95518.41;5038181;28;20237;-67
2024/01/07 00:31:32;;;;;;;12.27;4.47;;;;;;;5.56;100.00;95515.78;5037022;28;20201;-67
2024/01/07 00:33:58;;;;;;;11.83;4.77;;;;;;;5.51;100.00;95523.28;5036591;28;20212;-67
2024/01/07 00:36:26;;;;;;;12.20;4.60;;;;;;;5.54;100.00;95513.31;5036455;28;20208;-67
2024/01/07 00:38:52;;;;;;;9.80;4.97;;;;;;;5.40;100.00;95513.19;5037138;28;20205;-67
2024/01/07 00:41:19;;;;;;;11.60;4.97;;;;;;;5.23;100.00;95518.53;5036882;28;20198;-67
2024/01/07 00:43:46;;;;;;;11.97;4.87;;;;;;;5.13;100.00;95517.88;5036857;28;20231;-67
2024/01/07 00:46:12;;;;;;;12.37;5.07;;;;;;;5.22;100.00;95522.97;5036770;28;20346;-67
2024/01/07 00:48:39;;;;;;;20.07;5.80;;;;;;;5.34;100.00;95521.66;5036328;28;20205;-67
2024/01/07 00:51:05;;;;;;;9.53;4.60;;;;;;;5.17;100.00;95514.00;5036569;28;20200;-67
2024/01/07 00:53:33;;;;;;;11.97;4.67;;;;;;;5.04;100.00;95517.06;5036243;28;20197;-67
2024/01/07 00:55:59;;;;;;;9.13;3.80;;;;;;;4.86;100.00;95526.00;5037356;28;20221;-67
2024/01/07 00:58:26;;;;;;;12.07;4.80;;;;;;;4.99;100.00;95524.56;5036653;28;20209;-67
2024/01/07 01:00:53;;;;;;;11.30;4.73;;;;;;;4.75;100.00;95520.25;5036408;28;21220;-67
2024/01/07 01:03:20;;;;;;;12.83;5.10;;;;;;;4.86;100.00;95521.59;5035844;28;20299;-67
2024/01/07 01:05:47;;;;;;;11.10;4.37;;;;;;;4.85;100.00;95529.59;5036336;28;20224;-67
2024/01/07 01:08:13;;;;;;;10.20;4.43;;;;;;;4.94;100.00;95529.44;5036664;28;20689;-67
2024/01/07 01:10:41;;;;;;;9.63;4.43;;;;;;;4.99;100.00;95528.94;5036352;28;20228;-67
2024/01/07 01:13:08;;;;;;;11.63;4.37;;;;;;;4.90;100.00;95528.13;5036413;28;20201;-67
2024/01/07 01:15:34;;;;;;;10.00;3.97;;;;;;;4.91;100.00;95535.00;5034969;28;20609;-67
2024/01/07 01:18:00;;;;;;;10.43;4.70;;;;;;;5.20;100.00;95524.09;5036219;28;20649;-67
2024/01/07 01:20:27;;;;;;;12.23;4.73;;;;;;;5.16;100.00;95531.44;5036427;28;20213;-67
2024/01/07 01:22:53;;;;;;;8.43;3.97;;;;;;;5.32;100.00;95531.47;5036591;28;20551;-68
2024/01/07 01:25:20;;;;;;;13.73;5.13;;;;;;;5.38;100.00;95527.38;5035850;28;20224;-67
2024/01/07 01:27:48;;;;;;;10.80;4.83;;;;;;;5.63;100.00;95525.41;5036258;28;20201;-67
2024/01/07 01:30:14;;;;;;;11.07;4.27;;;;;;;5.49;100.00;95526.06;5036544;28;20216;-67
2024/01/07 01:32:42;;;;;;;10.83;4.10;;;;;;;5.62;100.00;95530.81;5036474;28;20218;-67
2024/01/07 01:35:10;;;;;;;10.40;4.83;;;;;;;5.44;100.00;95530.97;5036078;28;20718;-67
2024/01/07 01:37:36;;;;;;;12.83;4.63;;;;;;;5.48;100.00;95524.44;5036596;28;20208;-67
2024/01/07 01:40:04;;;;;;;13.47;5.10;;;;;;;5.50;100.00;95521.69;5037231;28;20197;-69
2024/01/07 01:42:30;;;;;;;12.03;4.53;;;;;;;5.36;100.00;95530.16;5036079;28;20323;-67
2024/01/07 01:45:01;;;;;;;11.90;4.93;;;;;;;5.28;100.00;95529.31;5036252;28;20233;-67
2024/01/07 01:47:28;;;;;;;11.00;4.57;;;;;;;5.21;100.00;95520.53;5036926;28;20212;-67
2024/01/07 01:49:54;;;;;;;11.53;5.17;;;;;;;5.24;100.00;95521.00;5036270;28;20239;-67
2024/01/07 01:52:21;;;;;;;14.50;5.27;;;;;;;5.22;100.00;95514.28;5036762;28;20197;-67
2024/01/07 01:54:48;;;;;;;9.33;4.53;;;;;;;4.78;100.00;95523.38;5036232;28;20224;-67
2024/01/07 01:57:17;;;;;;;12.17;5.07;;;;;;;4.85;100.00;95524.38;5036451;28;20215;-67
2024/01/07 01:59:44;;;;;;;10.93;4.70;;;;;;;4.97;100.00;95523.91;5035926;28;20621;-67
2024/01/07 02:02:12;;;;;;;10.13;4.77;;;;;;;5.10;100.00;95519.00;5036405;28;20209;-67
2024/01/07 02:04:38;;;;;;;11.20;5.90;;;;;;;4.79;100.00;95521.59;5035216;28;20238;-67
2024/01/07 02:07:05;;;;;;;13.83;5.90;;;;;;;5.00;100.00;95523.59;5035865;28;20211;-67
2024/01/07 02:09:32;;;;;;;12.70;5.23;;;;;;;4.82;100.00;95530.72;5035509;28;20213;-67
2024/01/07 02:12:02;;;;;;;11.53;5.10;;;;;;;5.02;100.00;95529.44;5035958;28;20693;-67
2024/01/07 02:14:29;;;;;;;12.77;4.47;;;;;;;4.64;100.00;95531.00;5034890;28;20220;-67
2024/01/07 02:16:55;;;;;;;10.70;4.57;;;;;;;4.64;100.00;95531.00;5038540;28;20207;-66
2024/01/07 02:19:24;;;;;;;10.93;5.33;;;;;;;4.89;100.00;95529.09;5040300;28;20286;-67
2024/01/07 02:21:51;;;;;;;14.37;5.60;;;;;;;4.95;100.00;95525.88;5039926;28;20291;-67
2024/01/07 02:24:19;;;;;;;19.73;5.33;;;;;;;4.89;100.00;95523.09;5038994;28;20243;-67
2024/01/07 02:26:46;;;;;;;11.87;4.63;;;;;;;4.79;100.00;95534.63;5039050;28;20208;-67
2024/01/07 02:29:12;;;;;;;14.33;5.13;;;;;;;4.76;100.00;95529.72;5040111;28;20201;-67
2024/01/07 02:31:39;;;;;;;11.93;5.20;;;;;;;4.75;100.00;95528.06;5039156;28;20205;-67
2024/01/07 02:34:05;;;;;;;17.70;5.97;;;;;;;4.74;100.00;95531.69;5039498;28;20193;-67
2024/01/07 02:36:32;;;;;;;12.53;5.47;;;;;;;4.81;100.00;95528.25;5039260;28;20223;-67
2024/01/07 02:38:58;;;;;;;16.23;5.67;;;;;;;4.80;100.00;95529.25;5039233;28;20197;-67
2024/01/07 02:41:26;;;;;;;12.37;4.83;;;;;;;4.86;100.00;95531.22;5039502;28;20197;-67
2024/01/07 02:43:53;;;;;;;13.97;4.77;;;;;;;4.74;100.00;95539.50;5038796;28;20220;-67
2024/01/07 02:46:20;;;;;;;11.77;4.60;;;;;;;4.64;100.00;95541.44;5039436;28;20224;-67
2024/01/07 02:48:47;;;;;;;10.37;4.53;;;;;;;4.54;100.00;95532.91;5038007;28;20202;-67
2024/01/07 02:51:13;;;;;;;16.57;6.00;;;;;;;4.53;100.00;95528.66;5040131;28;20202;-67
2024/01/07 02:53:40;;;;;;;14.53;4.53;;;;;;;4.48;100.00;95525.72;5037856;28;20221;-67
2024/01/07 02:56:08;;;;;;;12.47;5.27;;;;;;;4.51;100.00;95530.63;5038842;28;20231;-67
2024/01/07 02:58:36;;;;;;;12.30;5.27;;;;;;;4.80;100.00;95536.25;5039327;28;20288;-67
2024/01/07 03:01:02;;;;;;;10.10;4.47;;;;;;;4.41;100.00;95530.75;5039605;28;20205;-67
2024/01/07 03:03:33;;;;;;;13.83;4.80;;;;;;;4.82;100.00;95529.91;5038481;28;20209;-67
2024/01/07 03:06:00;;;;;;;11.70;5.10;;;;;;;4.49;100.00;95535.16;5037182;28;20681;-67
2024/01/07 03:08:27;;;;;;;10.90;5.50;;;;;;;4.72;100.00;95534.44;5039054;28;20208;-67
2024/01/07 03:10:54;;;;;;;11.13;4.87;;;;;;;4.55;100.00;95535.34;5038317;28;20207;-67
2024/01/07 03:13:21;;;;;;;9.03;4.30;;;;;;;4.23;100.00;95534.41;5038690;28;20211;-67
2024/01/07 03:15:49;;;;;;;15.10;4.67;;;;;;;4.36;100.00;95533.00;5038529;28;20240;-68
2024/01/07 03:18:15;;;;;;;12.27;5.17;;;;;;;4.20;100.00;95531.28;5038402;28;20209;-67
2024/01/07 03:20:42;;;;;;;9.10;4.50;;;;;;;4.22;100.00;95536.19;5038411;28;20212;-67
2024/01/07 03:23:08;;;;;;;9.60;4.50;;;;;;;4.50;100.00;95534.22;5038020;28;20353;-68
2024/01/07 03:25:35;;;;;;;10.57;5.27;;;;;;;4.25;100.00;95535.91;5038627;28;20235;-67
2024/01/07 03:28:01;;;;;;;11.10;5.63;;;;;;;4.29;100.00;95539.81;5038087;28;20205;-67
2024/01/07 03:30:28;;;;;;;8.63;3.87;;;;;;;4.39;100.00;95537.91;5038527;28;20208;-68
2024/01/07 03:32:55;;;;;;;11.73;5.13;;;;;;;4.32;100.00;95549.13;5038341;28;20214;-67
2024/01/07 03:35:23;;;;;;;10.50;4.57;;;;;;;4.17;100.00;95542.84;5037943;28;20220;-67
2024/01/07 03:37:50;;;;;;;13.47;5.30;;;;;;;4.44;100.00;95540.03;5037584;28;20216;-67
2024/01/07 03:40:17;;;;;;;12.30;5.47;;;;;;;4.18;100.00;95541.88;5038283;28;20214;-67
2024/01/07 03:42:43;;;;;;;9.10;4.60;;;;;;;4.05;100.00;95538.03;5038303;28;20227;-67
2024/01/07 03:45:10;;;;;;;10.97;4.83;;;;;;;4.22;100.00;95544.00;5037303;28;20788;-67
2024/01/07 03:47:36;;;;;;;23.43;6.00;;;;;;;4.14;100.00;95543.16;5037437;28;20211;-67
2024/01/07 03:50:04;;;;;;;11.50;4.53;;;;;;;4.43;100.00;95544.44;5038677;28;20425;-67
2024/01/07 03:52:31;;;;;;;13.10;5.30;;;;;;;4.32;100.00;95546.53;5037820;28;20212;-67
2024/01/07 03:54:57;;;;;;;11.37;5.17;;;;;;;4.30;100.00;95548.44;5037669;28;20227;-67
2024/01/07 03:57:24;;;;;;;14.17;5.30;;;;;;;4.21;100.00;95548.56;5038131;28;20209;-67
2024/01/07 03:59:50;;;;;;;11.07;5.07;;;;;;;4.25;100.00;95554.16;5037234;28;20209;-67
2024/01/07 04:02:17;;;;;;;13.83;5.63;;;;;;;4.22;100.00;95553.63;5038206;28;20213;-67
2024/01/07 04:04:44;;;;;;;11.60;5.40;;;;;;;4.29;100.00;95549.44;5037138;28;20234;-67
2024/01/07 04:07:11;;;;;;;13.80;5.00;;;;;;;4.31;100.00;95560.53;5037495;28;20212;-67
2024/01/07 04:09:38;;;;;;;13.57;5.30;;;;;;;4.23;100.00;95563.09;5037526;28;20680;-67
2024/01/07 04:12:05;;;;;;;10.17;4.77;;;;;;;4.15;100.00;95562.22;5038409;28;20203;-67
2024/01/07 04:14:33;;;;;;;10.47;5.20;;;;;;;4.29;100.00;95559.88;5037601;28;20224;-67
2024/01/07 04:17:00;;;;;;;12.47;4.87;;;;;;;4.33;100.00;95566.41;5036528;28;20391;-67
2024/01/07 04:19:26;;;;;;;11.37;4.77;;;;;;;4.28;100.00;95556.44;5037865;28;20209;-67
2024/01/07 04:21:53;;;;;;;13.67;5.63;;;;;;;4.20;100.00;95567.78;5037279;28;20575;-67
2024/01/07 04:24:20;;;;;;;10.73;4.70;;;;;;;4.46;100.00;95570.22;5037076;28;20614;-67
2024/01/07 04:26:47;;;;;;;12.83;5.73;;;;;;;4.32;100.00;95572.59;5037028;28;20208;-67
2024/01/07 04:29:13;;;;;;;12.77;5.50;;;;;;;4.37;100.00;95570.34;5037811;28;20207;-67
2024/01/07 04:31:40;;;;;;;12.67;5.67;;;;;;;4.47;100.00;95571.84;5036952;28;20209;-67
2024/01/07 04:34:06;;;;;;;13.67;6.30;;;;;;;4.36;100.00;95566.91;5036538;28;20201;-67
2024/01/07 04:36:33;;;;;;;14.57;5.57;;;;;;;4.40;100.00;95575.22;5037101;28;20212;-67
2024/01/07 04:38:59;;;;;;;12.73;5.60;;;;;;;4.55;100.00;95576.28;5036812;28;20216;-67
2024/01/07 04:41:27;;;;;;;15.50;5.70;;;;;;;4.50;100.00;95576.75;5037471;28;20207;-67
2024/01/07 04:43:54;;;;;;;12.33;6.00;;;;;;;4.44;100.00;95572.19;5036120;28;20611;-67
2024/01/07 04:46:20;;;;;;;15.87;6.13;;;;;;;4.42;100.00;95574.09;5037317;28;20224;-67
2024/01/07 04:48:47;;;;;;;13.30;5.67;;;;;;;4.28;100.00;95579.91;5036167;28;20227;-67
2024/01/07 04:51:13;;;;;;;15.60;5.53;;;;;;;4.28;100.00;95576.50;5037239;28;21133;-67
2024/01/07 04:53:40;;;;;;;13.60;6.70;;;;;;;4.35;100.00;95580.94;5036681;28;20208;-67
2024/01/07 04:56:07;;;;;;;12.17;5.13;;;;;;;4.31;100.00;95586.59;5036476;28;20717;-67
2024/01/07 04:58:35;;;;;;;11.97;4.87;;;;;;;4.51;100.00;95577.59;5036587;28;20741;-67
2024/01/07 05:01:01;;;;;;;15.07;5.90;;;;;;;4.29;100.00;95580.75;5036713;28;20200;-67
2024/01/07 05:03:28;;;;;;;13.37;5.13;;;;;;;4.16;100.00;95582.91;5035800;28;20212;-67
2024/01/07 05:05:54;;;;;;;12.87;5.10;;;;;;;4.18;100.00;95586.22;5035221;28;20224;-67
2024/01/07 05:08:21;;;;;;;14.30;6.53;;;;;;;4.15;100.00;95589.13;5036358;28;20201;-66
2024/01/07 05:10:47;;;;;;;10.90;5.13;;;;;;;4.14;100.00;95592.69;5035170;28;20697;-66
2024/01/07 05:13:14;;;;;;;16.67;6.40;;;;;;;4.29;100.00;95596.38;5035819;28;20201;-66
2024/01/07 05:15:42;;;;;;;18.87;5.37;;;;;;;4.48;100.00;95593.53;5036309;28;20621;-66
2024/01/07 05:18:09;;;;;;;11.10;5.20;;;;;;;4.40;100.00;95598.72;5035025;28;20731;-66
2024/01/07 05:20:35;;;;;;;12.03;5.37;;;;;;;4.10;100.00;95604.41;5034998;28;20555;-66
2024/01/07 05:23:02;;;;;;;14.23;5.73;;;;;;;4.20;100.00;95605.13;5036572;28;20200;-66
2024/01/07 05:25:28;;;;;;;13.63;5.97;;;;;;;3.99;100.00;95603.84;5035685;28;20258;-66
2024/01/07 05:27:55;;;;;;;13.83;6.30;;;;;;;4.04;100.00;95602.41;5034637;28;20994;-66
2024/01/07 05:30:22;;;;;;;17.93;6.73;;;;;;;4.14;100.00;95608.34;5035740;28;20231;-66
2024/01/07 05:32:50;;;;;;;14.00;6.13;;;;;;;4.45;100.00;95609.50;5035837;28;20219;-66
2024/01/07 05:35:16;;;;;;;17.73;7.17;;;;;;;4.27;100.00;95606.13;5034607;28;20217;-66
2024/01/07 05:37:42;;;;;;;13.53;5.80;;;;;;;4.20;100.00;95614.72;5034876;28;20216;-66
2024/01/07 05:40:10;;;;;;;16.60;7.23;;;;;;;4.29;100.00;95609.41;5035694;28;20216;-66
2024/01/07 05:42:37;;;;;;;15.10;6.93;;;;;;;4.17;100.00;95615.84;5034234;28;20205;-66
2024/01/07 05:45:04;;;;;;;15.97;6.50;;;;;;;4.20;100.00;95612.97;5034868;28;20235;-66
2024/01/07 05:47:30;;;;;;;15.87;6.47;;;;;;;4.10;100.00;95614.00;5035792;28;20592;-66
2024/01/07 05:49:58;;;;;;;16.63;7.30;;;;;;;4.17;100.00;95615.84;5033940;28;20234;-66
2024/01/07 05:52:25;;;;;;;17.30;7.20;;;;;;;4.21;100.00;95617.16;5034732;28;20212;-67
2024/01/07 05:54:51;;;;;;;17.57;5.93;;;;;;;4.40;100.00;95616.97;5034375;28;20322;-66
2024/01/07 05:57:18;;;;;;;17.20;7.10;;;;;;;4.35;100.00;95619.22;5035109;28;20542;-66
2024/01/07 05:59:44;;;;;;;17.23;6.53;;;;;;;4.09;100.00;95623.63;5034634;28;20213;-67
2024/01/07 06:02:12;;;;;;;19.97;7.57;;;;;;;4.20;100.00;95622.53;4998396;28;1080716;-66
2024/01/07 06:04:38;;;;;;;18.33;7.07;;;;;;;4.17;100.00;95621.06;5035198;28;20232;-66
2024/01/07 06:07:07;;;;;;;14.83;6.53;;;;;;;4.51;100.00;95627.16;5035667;28;20207;-66
2024/01/07 06:09:33;;;;;;;16.17;7.40;;;;;;;4.17;100.00;95621.06;5036756;28;20215;-66
2024/01/07 06:12:00;;;;;;;20.30;7.20;;;;;;;4.29;100.00;95625.06;5035748;28;20207;-66
2024/01/07 06:14:27;;;;;;;17.07;6.83;;;;;;;4.27;100.00;95616.56;5035409;28;20236;-66
2024/01/07 06:16:53;;;;;;;18.17;6.70;;;;;;;4.20;100.00;95618.16;5035270;28;20209;-66
2024/01/07 06:19:20;;;;;;;17.80;7.90;;;;;;;4.52;100.00;95626.97;5035969;28;20200;-66
2024/01/07 06:21:47;;;;;;;20.03;6.93;;;;;;;4.27;100.00;95627.81;5035088;28;20210;-66
2024/01/07 06:24:15;;;;;;;16.30;6.80;;;;;;;4.28;100.00;95628.63;5036194;28;20211;-66
2024/01/07 06:26:42;;;;;;;16.37;7.57;;;;;;;4.33;100.00;95627.19;5035439;28;20231;-66
2024/01/07 06:29:09;;;;;;;20.83;8.43;;;;;;;4.54;100.00;95634.66;5035058;28;20210;-66
2024/01/07 06:31:36;;;;;;;20.20;8.37;;;;;;;4.27;100.00;95632.22;5036286;28;20595;-66
2024/01/07 06:34:02;;;;;;;18.73;7.50;;;;;;;4.33;100.00;95640.25;5035815;28;20203;-66
2024/01/07 06:36:29;;;;;;;17.70;7.67;;;;;;;4.29;100.00;95641.53;5034922;28;21015;-66
2024/01/07 06:38:55;;;;;;;18.50;7.40;;;;;;;4.28;100.00;95642.50;5035688;28;20209;-66
2024/01/07 06:41:23;;;;;;;17.43;8.07;;;;;;;4.33;100.00;95652.47;5035972;28;20672;-67
2024/01/07 06:43:52;;;;;;;19.67;7.27;;;;;;;4.17;100.00;95649.75;5035180;28;20219;-67
2024/01/07 06:46:18;;;;;;;15.97;7.83;;;;;;;4.16;100.00;95655.91;5035709;28;20232;-67
2024/01/07 06:48:45;;;;;;;17.97;7.30;;;;;;;4.13;100.00;95661.44;5034929;28;20674;-66
2024/01/07 06:51:11;;;;;;;20.67;7.10;;;;;;;4.37;100.00;95659.00;5035697;28;20200;-66
2024/01/07 06:53:38;;;;;;;15.67;6.80;;;;;;;4.27;100.00;95655.69;5035220;28;20578;-66
2024/01/07 06:56:05;;;;;;;15.73;6.50;;;;;;;4.04;100.00;95658.94;5036173;28;20223;-66
2024/01/07 06:58:33;;;;;;;16.13;6.57;;;;;;;4.30;100.00;95663.19;5036177;28;20205;-66
2024/01/07 07:00:59;;;;;;;21.17;7.33;;;;;;;4.28;100.00;95665.16;5035247;28;20577;-67
2024/01/07 07:03:26;;;;;;;18.23;7.73;;;;;;;4.40;100.00;95669.13;5038884;28;20204;-67
2024/01/07 07:05:51;;;;;;;17.40;6.93;;;;;;;4.11;100.00;95671.22;5038337;28;21042;-67
2024/01/07 07:08:18;;;;;;;14.63;6.77;;;;;;;4.47;100.00;95665.75;5039266;28;20200;-66
2024/01/07 07:10:45;;;;;;;19.10;7.17;;;;;;;4.49;100.00;95663.00;5038930;28;20689;-67
2024/01/07 07:13:13;;;;;;;15.23;6.20;;;;;;;4.32;100.00;95671.69;5038968;28;21184;-67
2024/01/07 07:15:41;;;;;;;14.50;6.43;;;;;;;4.26;100.00;95661.88;5039618;28;20228;-67
2024/01/07 07:18:07;;;;;;;20.50;8.10;;;;;;;4.30;100.00;95674.47;5038733;28;20200;-67
2024/01/07 07:20:34;;;;;;;15.80;6.70;;;;;;;4.13;100.00;95682.31;5039157;28;20212;-67
2024/01/07 07:23:00;;;;;;;16.63;6.77;;;;;;;4.27;100.00;95684.38;5038790;28;20219;-67
2024/01/07 07:25:27;;;;;;;15.57;7.07;;;;;;;4.24;100.00;95685.50;5038332;28;20237;-67
2024/01/07 07:27:53;;;;;;;14.40;6.50;;;;;;;4.15;100.00;95685.59;5037855;28;20214;-66
2024/01/07 07:30:20;;;;;;;17.03;7.03;;;;;;;4.25;100.00;95688.91;5039007;28;20259;-67
2024/01/07 07:32:48;;;;;;;16.67;7.27;;;;;;;4.43;100.00;95679.25;5038432;28;20211;-67
2024/01/07 07:35:15;;;;;;;16.83;6.87;;;;;;;4.23;100.00;95694.28;5037535;28;20224;-66
2024/01/07 07:37:41;;;;;;;17.17;6.80;;;;;;;3.94;100.00;95699.91;5038149;28;21179;-66
2024/01/07 07:40:08;;;;;;;14.93;6.67;;;;;;;4.09;100.00;95707.03;5038922;28;20211;-67
2024/01/07 07:42:35;;;;;;;16.63;6.47;;;;;;;4.18;100.00;95706.13;5036963;28;20224;-66
2024/01/07 07:45:02;;;;;;;13.00;6.47;;;;;;;4.09;100.00;95714.06;5037320;28;20228;-66
2024/01/07 07:47:28;;;;;;;16.03;6.13;;;;;;;3.98;100.00;95725.50;5039202;28;20672;-67
2024/01/07 07:49:56;;;;;;;12.57;5.73;;;;;;;4.24;100.00;95716.78;5037427;28;20222;-67
2024/01/07 07:52:25;;;;;;;12.27;5.40;;;;;;;3.87;100.00;95728.34;5037654;28;20214;-67
2024/01/07 07:54:51;;;;;;;13.17;6.00;;;;;;;4.17;100.00;95724.53;5037673;28;20257;-67
2024/01/07 07:57:19;;;;;;;13.97;5.47;;;;;;;3.91;100.00;95739.31;5035208;28;20199;-67
2024/01/07 07:59:46;;;;;;;15.07;6.13;;;;;;;4.02;100.00;95729.47;5036381;28;20210;-67
2024/01/07 08:02:13;;;;;;;18.47;5.53;;;;;;;4.16;100.00;95734.13;5036891;28;20219;-67
2024/01/07 08:04:41;;;;;;;13.57;5.77;;;;;;;3.93;100.00;95737.34;5037062;28;20234;-66
2024/01/07 08:07:09;;;;;;;18.87;6.30;;;;;;;4.21;100.00;95734.50;5036501;28;20227;-67
2024/01/07 08:09:36;;;;;;;16.10;7.00;;;;;;;3.95;100.00;95741.44;5035608;28;20217;-67
2024/01/07 08:12:03;;;;;;;16.27;6.23;;;;;;;4.22;100.00;95745.78;5035888;28;20274;-67
2024/01/07 08:14:30;;;;;;;12.37;6.27;;;;;;;4.18;100.00;95744.44;5035640;28;20228;-67
2024/01/07 08:16:57;;;;;;;15.60;6.20;;;;;;;3.91;100.00;95745.31;5036845;28;20203;-67
2024/01/07 08:19:23;;;;;;;16.07;6.47;;;;;;;4.07;100.00;95739.44;5037518;28;20205;-67
2024/01/07 08:21:50;;;;;;;13.37;6.13;;;;;;;3.85;100.00;95747.72;5032604;28;20211;-66
2024/01/07 08:24:17;;;;;;;13.73;5.57;;;;;;;3.81;100.00;95744.56;5035075;28;20610;-67
2024/01/07 08:26:44;;;;;;;13.47;6.07;;;;;;;3.64;100.00;95747.19;5035715;28;20242;-67
2024/01/07 08:29:11;;;;;;;12.83;6.40;;;;;;;3.46;100.00;95751.53;5035486;28;20196;-67
2024/01/07 08:31:38;;;;;;;14.00;6.20;;;;;;;3.73;100.00;95747.09;5035547;28;20219;-67
2024/01/07 08:34:04;;;;;;;13.30;5.80;;;;;;;3.67;100.00;95752.91;5034653;28;20212;-66
2024/01/07 08:36:31;;;;;;;12.60;5.13;;;;;;;3.89;100.00;95760.28;5036092;28;20227;-67
2024/01/07 08:38:57;;;;;;;15.00;5.90;;;;;;;3.54;100.00;95754.22;5034487;28;20672;-66
2024/01/07 08:41:25;;;;;;;16.33;7.40;;;;;;;3.73;100.00;95760.13;5035299;28;20199;-69
2024/01/07 08:43:52;;;;;;;12.37;5.10;;;;;;;3.67;100.00;95763.31;5035167;28;20214;-66
2024/01/07 08:46:21;;;;;;;11.30;5.13;;;;;;;4.04;100.00;95769.22;5035163;28;20231;-66
2024/01/07 08:48:47;;;;;;;18.73;6.17;;;;;;;3.59;100.00;95775.47;5034895;28;20222;-67
2024/01/07 08:51:14;;;;;;;12.23;5.17;;;;;;;3.75;100.00;95770.41;5035617;28;20237;-67
2024/01/07 08:53:41;;;;;;;16.07;5.53;;;;;;;3.51;100.00;95771.94;5034556;28;20750;-67
2024/01/07 08:56:08;;;;;;;12.60;4.83;;;;;;;3.73;100.00;95773.16;5035001;28;20230;-67
2024/01/07 08:58:37;;;;;;;12.47;5.40;;;;;;;3.74;100.00;95776.56;5035711;28;20208;-67
2024/01/07 09:01:03;;;;;;;11.73;5.20;;;;;;;3.64;100.00;95779.25;5034786;28;20214;-68
2024/01/07 09:03:30;;;;;;;9.80;4.67;;;;;;;3.19;100.00;95781.97;5034290;28;20208;-67
2024/01/07 09:05:56;;;;;;;9.90;4.57;;;;;;;3.40;100.00;95782.53;5034575;28;20230;-67
2024/01/07 09:08:23;;;;;;;12.90;5.90;;;;;;;3.51;100.00;95790.97;5034735;28;20203;-67
2024/01/07 09:10:50;;;;;;;11.83;5.67;;;;;;;3.66;100.00;95792.94;5034616;28;20696;-67
2024/01/07 09:13:17;;;;;;;10.37;4.07;;;;;;;3.63;100.00;95790.63;5034671;28;20200;-67
2024/01/07 09:15:44;;;;;;;10.10;4.33;;;;;;;3.37;100.00;95795.84;5035265;28;20739;-67
2024/01/07 09:18:11;;;;;;;12.93;5.50;;;;;;;3.42;100.00;95797.03;5033471;28;20197;-67
2024/01/07 09:20:38;;;;;;;11.20;4.47;;;;;;;3.54;100.00;95802.88;5034573;28;20214;-67
2024/01/07 09:23:04;;;;;;;11.30;5.30;;;;;;;3.44;100.00;95808.16;5034244;28;21031;-67
2024/01/07 09:25:31;;;;;;;12.03;4.33;;;;;;;3.29;100.00;95803.56;5033839;28;20227;-67
2024/01/07 09:27:58;;;;;;;9.83;4.00;;;;;;;3.53;100.00;95816.91;5034083;28;20670;-67
2024/01/07 09:30:24;;;;;;;6.47;3.63;;;;;;;3.44;100.00;95822.97;5034351;28;20209;-67
2024/01/07 09:32:52;;;;;;;11.43;5.03;;;;;;;3.33;100.00;95815.34;5034419;28;20233;-67
2024/01/07 09:35:18;;;;;;;10.40;4.23;;;;;;;3.18;100.00;95827.16;5033851;28;20222;-67
2024/01/07 09:37:45;;;;;;;9.37;3.93;;;;;;;3.19;100.00;95828.81;5034642;28;20224;-67
2024/01/07 09:40:13;;;;;;;11.53;4.20;;;;;;;3.37;100.00;95827.91;5033018;28;20207;-67
2024/01/07 09:42:40;;;;;;;9.60;4.13;;;;;;;3.22;100.00;95825.91;5034624;28;20649;-67
2024/01/07 09:45:07;;;;;;;8.60;4.00;;;;;;;3.27;100.00;95834.13;5032982;28;20808;-67
2024/01/07 09:47:35;;;;;;;7.67;3.80;;;;;;;3.14;100.00;95833.63;5033493;28;20233;-67
2024/01/07 09:50:05;;;;;;;10.73;4.33;;;;;;;4.70;100.00;95831.25;5032660;28;21055;-67
2024/01/07 09:52:33;;;;;;;9.27;3.97;;;;;;;3.71;100.00;95829.78;5033488;28;20211;-67
2024/01/07 09:55:04;;;;;;;11.30;4.90;;;;;;;3.87;100.00;95832.59;5033485;28;20931;-67
2024/01/07 09:57:31;;;;;;;14.13;4.83;;;;;;;3.39;100.00;95836.41;5034021;28;20670;-67
2024/01/07 09:59:57;;;;;;;9.83;3.63;;;;;;;3.60;100.00;95836.97;5034444;28;20205;-67
2024/01/07 10:02:24;;;;;;;8.43;3.73;;;;;;;3.05;100.00;95842.28;5033397;28;20223;-67
2024/01/07 10:04:50;;;;;;;9.63;3.70;;;;;;;3.06;100.00;95843.94;5033166;28;20795;-67
2024/01/07 10:07:18;;;;;;;6.67;3.47;;;;;;;3.04;100.00;95851.88;5033172;28;20740;-67
2024/01/07 10:09:45;;;;;;;9.90;5.23;;;;;;;2.78;100.00;95847.41;5035534;28;20236;-68
2024/01/07 10:12:12;;;;;;;9.23;4.47;;;;;;;2.86;100.00;95852.72;5035537;28;20560;-68
2024/01/07 10:14:40;;;;;;;11.80;5.03;;;;;;;2.89;100.00;95846.44;5035089;28;20228;-68
2024/01/07 10:17:16;;;;;;;7.83;4.07;;;;;;;3.13;100.00;95845.00;5036567;28;20296;-68
2024/01/07 10:19:45;;;;;;;11.33;5.00;;;;;;;2.85;100.00;95847.66;5035723;28;20927;-68
2024/01/07 10:22:13;;;;;;;8.17;4.17;;;;;;;2.93;100.00;95856.44;5036946;28;20260;-68
2024/01/07 10:24:43;;;;;;;10.20;4.10;;;;;;;3.02;100.00;95845.19;5035529;28;20234;-68
2024/01/07 10:27:10;;;;;;;12.10;4.83;;;;;;;3.28;100.00;95848.78;5035485;28;20230;-68
2024/01/07 10:29:37;;;;;;;14.00;4.90;;;;;;;3.34;100.00;95843.81;5036131;28;20214;-68
2024/01/07 10:32:05;;;;;;;14.43;5.20;;;;;;;2.81;100.00;95852.31;5034692;28;20207;-68
2024/01/07 10:34:32;;;;;;;13.47;4.77;;;;;;;3.00;100.00;95852.28;5035079;28;20795;-68
2024/01/07 10:37:00;;;;;;;8.93;3.87;;;;;;;3.12;100.00;95843.38;5035990;28;20210;-68
2024/01/07 10:39:27;;;;;;;12.07;4.27;;;;;;;3.00;100.00;95844.47;5039636;28;20290;-68
2024/01/07 10:41:57;;;;;;;13.00;4.70;;;;;;;3.23;100.00;95843.19;5039164;28;20206;-68
2024/01/07 10:44:26;;;;;;;8.13;3.53;;;;;;;2.93;100.00;95846.03;5039165;28;20238;-68
2024/01/07 10:46:54;;;;;;;10.00;4.97;;;;;;;3.06;100.00;95841.31;5039817;28;20237;-68
2024/01/07 10:49:22;;;;;;;10.73;4.17;;;;;;;3.39;100.00;95843.41;5039431;28;20210;-68
2024/01/07 10:52:02;;;;;;;12.70;4.80;;;;;;;3.27;100.00;95841.94;5039055;28;20207;-68
2024/01/07 10:54:30;;;;;;;12.17;4.70;;;;;;;3.37;100.00;95845.31;5040245;28;20222;-68
2024/01/07 10:57:00;;;;;;;9.87;4.23;;;;;;;3.04;100.00;95856.25;5039188;28;20233;-68
2024/01/07 10:59:28;;;;;;;11.10;4.23;;;;;;;2.95;100.00;95848.47;5040077;28;20255;-70
2024/01/07 11:01:55;;;;;;;14.50;4.53;;;;;;;3.25;100.00;95852.50;5039319;28;20288;-67
2024/01/07 11:04:28;;;;;;;11.50;4.27;;;;;;;3.42;100.00;95846.53;5039791;28;20226;-69
2024/01/07 11:07:02;;;;;;;11.07;4.97;;;;;;;3.16;100.00;95849.94;5039918;28;20233;-67
2024/01/07 11:09:35;;;;;;;10.23;4.70;;;;;;;3.33;100.00;95841.38;5039984;28;20214;-70
2024/01/07 11:12:04;;;;;;;12.53;4.77;;;;;;;3.51;100.00;95843.06;5039442;28;20662;-67
2024/01/07 11:14:39;;;;;;;9.90;3.93;;;;;;;3.04;100.00;95851.03;5038814;28;20255;-67
2024/01/07 11:17:06;;;;;;;12.37;4.30;;;;;;;2.86;100.00;95852.72;5039332;28;20207;-67
2024/01/07 11:19:32;;;;;;;8.43;4.00;;;;;;;2.92;100.00;95849.56;5038641;28;20551;-67
2024/01/07 11:22:24;;;;;;;9.90;4.07;;;;;;;3.27;100.00;95844.53;5039821;28;20202;-67
2024/01/07 11:24:52;;;;;;;10.33;4.40;;;;;;;3.23;100.00;95838.81;5038503;28;20265;-70
2024/01/07 11:27:22;;;;;;;9.47;3.97;;;;;;;2.97;100.00;95844.78;5040496;28;20225;-67